Time;durP1;ratioP1;P1;durP2;ratioP2;P2;SDS_P1;SDS_P2;PMS_P1;PMS_P2;Temp;Humidity;BMP_temperature;BMP_pressure;BME280_temperature;BME280_humidity;BME280_pressure;Samples;Min_cycle;Max_cycle;Signal;HPM_P1;HPM_P2
2020/12/28 00:08:19;;;;;;;;;;;1.60;99.90;;;;;;21062791;28;20040;-83
2020/12/28 00:18:20;;;;;;;3.88;2.42;;;2.00;99.90;;;;;;21045738;28;19908;-84
2020/12/28 00:28:20;;;;;;;3.05;2.22;;;2.80;99.90;;;;;;21006202;28;20032;-83
2020/12/28 00:38:21;;;;;;;4.20;2.50;;;2.90;99.90;;;;;;20975463;28;20225;-84
2020/12/28 00:48:22;;;;;;;3.10;2.00;;;3.10;99.90;;;;;;20952508;28;20309;-83
2020/12/28 00:58:24;;;;;;;;;;;3.30;99.90;;;;;;20954470;28;20032;-84
2020/12/28 01:08:34;;;;;;;2.58;2.08;;;3.30;99.90;;;;;;21013183;28;19912;-84
2020/12/28 01:18:35;;;;;;;;;;;3.20;99.90;;;;;;21010701;28;20504;-85
2020/12/28 01:28:41;;;;;;;2.17;1.33;;;3.10;99.90;;;;;;21037217;28;19908;-84
2020/12/28 01:38:42;;;;;;;1.58;1.10;;;3.20;99.90;;;;;;21013046;28;20055;-85
2020/12/28 01:48:44;;;;;;;1.67;1.20;;;3.40;99.90;;;;;;21064351;28;20035;-84
2020/12/28 01:58:48;;;;;;;1.65;1.35;;;3.10;99.90;;;;;;21081850;28;20452;-85
2020/12/28 02:08:49;;;;;;;;;;;3.00;99.90;;;;;;21065612;28;20085;-84
2020/12/28 02:18:50;;;;;;;2.03;1.10;;;3.10;99.90;;;;;;21081848;28;19912;-84
2020/12/28 02:29:00;;;;;;;2.05;1.38;;;3.10;99.90;;;;;;21098264;28;20412;-85
2020/12/28 02:39:01;;;;;;;;;;;3.20;99.90;;;;;;21065440;28;20028;-85
2020/12/28 02:49:03;;;;;;;1.27;1.07;;;3.10;99.90;;;;;;21065970;28;20010;-83
2020/12/28 02:59:36;;;;;;;1.45;1.20;;;2.90;99.90;;;;;;21051550;28;20496;-84
2020/12/28 03:10:10;;;;;;;1.30;0.93;;;3.10;99.90;;;;;;21050638;28;20032;-83
2020/12/28 03:20:29;;;;;;;1.13;0.93;;;3.10;99.90;;;;;;21086083;28;20036;-84
2020/12/28 03:30:49;;;;;;;1.15;0.90;;;3.10;99.90;;;;;;21081699;28;20044;-84
2020/12/28 03:41:12;;;;;;;2.08;1.40;;;3.00;99.90;;;;;;21099228;28;20039;-84
2020/12/28 03:51:31;;;;;;;2.13;1.27;;;2.70;99.90;;;;;;21084842;28;20580;-84
2020/12/28 04:01:51;;;;;;;1.80;1.38;;;2.70;99.90;;;;;;21083263;28;20493;-85
2020/12/28 04:12:10;;;;;;;1.10;1.00;;;2.50;99.90;;;;;;21081606;28;20075;-87
2020/12/28 04:22:11;;;;;;;;;;;2.50;99.90;;;;;;21091619;28;20433;-86
2020/12/28 04:32:12;;;;;;;4.32;1.42;;;2.40;99.90;;;;;;21091204;28;20288;-86
2020/12/28 04:42:13;;;;;;;1.23;0.93;;;2.40;99.90;;;;;;21054868;28;20074;-87
2020/12/28 04:52:15;;;;;;;1.50;1.02;;;2.40;99.90;;;;;;21055079;28;20036;-85
2020/12/28 05:02:15;;;;;;;1.42;1.10;;;2.00;99.90;;;;;;21052901;28;20046;-85
2020/12/28 05:12:16;;;;;;;;;;;1.70;99.90;;;;;;21083731;28;20036;-84
2020/12/28 05:22:17;;;;;;;0.98;0.88;;;1.70;99.90;;;;;;21088038;28;19912;-85
2020/12/28 05:32:18;;;;;;;;;;;2.00;99.90;;;;;;21071394;28;20035;-85
2020/12/28 05:42:19;;;;;;;3.50;1.50;;;2.10;99.90;;;;;;21087842;28;19919;-85
2020/12/28 05:52:20;;;;;;;3.42;1.98;;;2.30;99.90;;;;;;21104219;28;20081;-86
2020/12/28 06:02:26;;;;;;;40.38;21.05;;;2.40;99.90;;;;;;21086147;28;20028;-85
2020/12/28 06:12:26;;;;;;;3.03;2.05;;;2.30;99.90;;;;;;21072215;28;20055;-86
2020/12/28 06:22:27;;;;;;;3.55;2.47;;;2.20;99.90;;;;;;21070893;28;20028;-84
2020/12/28 06:32:29;;;;;;;4.53;3.20;;;2.00;99.90;;;;;;21105096;28;20043;-86
2020/12/28 06:42:30;;;;;;;23.08;12.98;;;1.90;99.90;;;;;;21083645;28;20064;-82
2020/12/28 06:52:32;;;;;;;10.10;6.88;;;2.20;99.90;;;;;;21069131;28;20032;-83
2020/12/28 07:02:33;;;;;;;13.47;7.93;;;3.00;99.90;;;;;;21069451;28;20096;-83
2020/12/28 07:12:34;;;;;;;76.70;44.50;;;4.40;99.90;;;;;;21087140;28;20702;-84
2020/12/28 07:22:36;;;;;;;1.77;1.60;;;4.90;99.90;;;;;;21065114;28;20404;-85
2020/12/28 07:32:37;;;;;;;5.68;3.55;;;2.60;99.90;;;;;;21059228;28;20039;-84
2020/12/28 07:42:38;;;;;;;27.70;20.70;;;2.20;99.90;;;;;;21094733;28;20062;-84
2020/12/28 07:52:56;;;;;;;2.90;2.30;;;2.40;99.90;;;;;;21077038;28;20383;-85
2020/12/28 08:03:19;;;;;;;8.27;5.60;;;2.20;99.90;;;;;;21061786;28;20035;-84
2020/12/28 08:13:31;;;;;;;10.65;6.43;;;2.00;99.90;;;;;;21081056;28;20043;-84
2020/12/28 08:23:32;;;;;;;11.48;6.65;;;1.90;99.90;;;;;;21063187;28;20031;-82
2020/12/28 08:33:35;;;;;;;;;;;2.00;99.90;;;;;;21073633;28;20085;-83
2020/12/28 08:43:36;;;;;;;14.32;7.43;;;1.90;99.90;;;;;;21072461;28;19939;-83
2020/12/28 08:53:36;;;;;;;;;;;1.90;99.90;;;;;;21095401;28;20056;-83
2020/12/28 09:03:38;;;;;;;13.90;7.72;;;2.00;99.90;;;;;;21073907;28;20391;-84
2020/12/28 09:13:39;;;;;;;17.02;9.32;;;2.00;99.90;;;;;;21055367;28;20035;-83
2020/12/28 09:23:39;;;;;;;;;;;2.10;99.90;;;;;;21090702;28;20077;-82
2020/12/28 09:33:40;;;;;;;26.27;13.98;;;2.10;99.90;;;;;;21077758;28;19908;-84
2020/12/28 09:43:42;;;;;;;;;;;2.00;99.90;;;;;;21076481;28;20024;-83
2020/12/28 09:53:43;;;;;;;19.77;10.82;;;1.90;99.90;;;;;;21072819;28;20319;-83
2020/12/28 10:03:44;;;;;;;97.63;44.45;;;1.90;99.90;;;;;;21070586;28;20051;-83
2020/12/28 10:13:45;;;;;;;;;;;2.00;99.90;;;;;;21074210;28;20032;-87
2020/12/28 10:23:46;;;;;;;26.92;14.07;;;2.00;99.90;;;;;;21085972;28;19915;-84
2020/12/28 10:33:48;;;;;;;22.35;11.60;;;1.90;99.90;;;;;;21069013;28;20057;-84
2020/12/28 10:43:49;;;;;;;69.18;38.22;;;1.90;99.90;;;;;;21066504;28;20257;-84
2020/12/28 10:53:50;;;;;;;;;;;1.90;99.90;;;;;;21068852;28;20032;-85
2020/12/28 11:03:52;;;;;;;15.82;8.80;;;1.70;99.90;;;;;;21083512;28;19912;-83
2020/12/28 11:13:53;;;;;;;13.57;6.40;;;1.70;99.90;;;;;;21066552;28;20395;-84
2020/12/28 11:24:01;;;;;;;;;;;1.90;99.90;;;;;;21082596;28;20028;-85
2020/12/28 11:34:02;;;;;;;6.35;4.13;;;2.10;99.90;;;;;;21069838;28;19912;-85
2020/12/28 11:44:03;;;;;;;;;;;2.30;99.90;;;;;;21111419;28;20086;-85
2020/12/28 11:54:05;;;;;;;6.28;2.00;;;2.50;99.90;;;;;;21132346;28;20300;-85
2020/12/28 12:04:06;;;;;;;4.53;2.83;;;2.50;99.90;;;;;;21146830;28;20500;-85
2020/12/28 12:14:07;;;;;;;3.60;2.15;;;2.60;99.90;;;;;;21144315;28;20404;-84
2020/12/28 12:24:08;;;;;;;2.20;1.92;;;2.70;99.90;;;;;;21042299;28;20051;-85
2020/12/28 12:34:12;;;;;;;6.70;3.47;;;2.80;99.90;;;;;;21072010;28;20040;-84
2020/12/28 12:44:13;;;;;;;4.47;2.80;;;2.90;99.90;;;;;;21093053;28;20032;-85
2020/12/28 12:54:14;;;;;;;2.67;1.70;;;3.00;99.90;;;;;;21083853;28;20027;-85
2020/12/28 13:04:30;;;;;;;2.73;1.80;;;3.10;99.90;;;;;;21056867;28;20613;-84
2020/12/28 13:14:31;;;;;;;1.60;1.30;;;3.20;99.90;;;;;;21043220;28;20043;-86
2020/12/28 13:24:32;;;;;;;1.42;1.20;;;3.20;99.90;;;;;;21016076;28;20493;-85
2020/12/28 13:34:33;;;;;;;5.90;2.17;;;3.30;99.90;;;;;;21060076;28;20069;-84
2020/12/28 13:44:34;;;;;;;;;;;3.30;99.90;;;;;;21053434;28;20042;-84
2020/12/28 13:54:35;;;;;;;4.03;1.90;;;3.50;99.90;;;;;;21053895;28;19912;-85
2020/12/28 14:04:36;;;;;;;4.77;1.80;;;3.70;99.90;;;;;;21054231;28;20162;-85
2020/12/28 14:14:36;;;;;;;2.03;1.40;;;3.70;99.90;;;;;;21064375;28;20464;-84
2020/12/28 14:24:37;;;;;;;2.17;1.67;;;3.80;99.90;;;;;;21046626;28;20059;-85
2020/12/28 14:34:38;;;;;;;3.40;1.80;;;3.80;99.90;;;;;;21061168;28;20074;-85
2020/12/28 14:44:39;;;;;;;7.73;3.27;;;4.10;99.90;;;;;;21039364;28;20016;-84
2020/12/28 14:54:40;;;;;;;5.13;1.77;;;3.90;99.90;;;;;;21042361;28;20123;-86
2020/12/28 15:04:41;;;;;;;4.77;1.43;;;4.10;99.90;;;;;;21010266;28;20041;-85
2020/12/28 15:14:42;;;;;;;2.63;1.13;;;3.70;99.90;;;;;;20978526;28;20035;-86
2020/12/28 15:24:43;;;;;;;2.03;1.17;;;3.50;99.90;;;;;;21024075;28;20290;-87
2020/12/28 15:34:44;;;;;;;1.63;0.90;;;3.40;99.90;;;;;;21052110;28;20047;-85
2020/12/28 15:44:45;;;;;;;2.42;1.23;;;3.20;99.90;;;;;;21038240;28;20043;-87
2020/12/28 15:54:46;;;;;;;3.77;2.10;;;3.00;99.90;;;;;;20984386;28;20037;-86
2020/12/28 16:04:47;;;;;;;13.55;4.32;;;2.50;99.90;;;;;;20985472;28;20298;-86
2020/12/28 16:14:49;;;;;;;5.00;2.80;;;2.20;99.90;;;;;;20965183;28;20487;-84
2020/12/28 16:24:50;;;;;;;122.95;35.03;;;2.00;99.90;;;;;;20968468;28;20017;-86
2020/12/28 16:34:50;;;;;;;;;;;1.40;99.90;;;;;;20959918;28;20070;-83
2020/12/28 16:44:51;;;;;;;24.15;8.13;;;0.80;99.90;;;;;;20981697;28;19916;-84
2020/12/28 16:54:53;;;;;;;47.28;16.40;;;0.80;99.90;;;;;;20970344;28;20039;-84
2020/12/28 17:04:53;;;;;;;14.90;8.52;;;0.60;99.90;;;;;;20962626;28;20485;-85
2020/12/28 17:14:54;;;;;;;32.30;16.60;;;0.30;99.90;;;;;;20975340;28;20867;-85
2020/12/28 17:24:56;;;;;;;15.55;8.48;;;0.30;99.90;;;;;;21070147;28;20032;-85
2020/12/28 17:34:57;;;;;;;11.40;5.90;;;0.30;99.90;;;;;;21149137;28;20039;-85
2020/12/28 17:44:59;;;;;;;4.22;2.55;;;-0.10;99.90;;;;;;21133643;28;20047;-84
2020/12/28 17:55:02;;;;;;;6.00;3.80;;;-0.10;99.90;;;;;;21155688;28;20423;-84
2020/12/28 18:05:03;;;;;;;7.22;4.28;;;0.40;99.90;;;;;;21128512;28;20032;-82
2020/12/28 18:15:04;;;;;;;6.78;3.92;;;0.40;99.90;;;;;;21040639;28;20029;-83
2020/12/28 18:25:05;;;;;;;7.25;4.30;;;0.30;99.90;;;;;;20982842;28;20050;-82
2020/12/28 18:35:06;;;;;;;8.23;4.72;;;0.40;99.90;;;;;;20981886;28;20072;-85
2020/12/28 18:45:13;;;;;;;8.25;3.45;;;0.60;99.90;;;;;;20975798;28;20096;-85
2020/12/28 18:55:14;;;;;;;32.53;12.02;;;0.50;99.90;;;;;;21003389;28;20037;-87
2020/12/28 19:05:18;;;;;;;11.43;6.07;;;0.70;99.90;;;;;;20982833;28;20422;-84
2020/12/28 19:15:19;;;;;;;7.35;4.53;;;0.50;99.90;;;;;;20982884;28;20114;-87
2020/12/28 19:25:20;;;;;;;8.45;4.25;;;0.60;99.90;;;;;;20966574;28;20714;-84
2020/12/28 19:35:21;;;;;;;10.55;4.63;;;0.70;99.90;;;;;;20984437;28;20060;-85
2020/12/28 19:45:22;;;;;;;7.22;3.85;;;0.80;99.90;;;;;;21003175;28;20039;-86
2020/12/28 19:55:23;;;;;;;7.55;4.13;;;0.80;99.90;;;;;;21042911;28;20040;-87
2020/12/28 20:05:24;;;;;;;8.65;3.67;;;0.80;99.90;;;;;;21082596;28;20027;-86
2020/12/28 20:15:25;;;;;;;5.88;3.55;;;0.80;99.90;;;;;;21060424;28;20043;-86
2020/12/28 20:25:30;;;;;;;9.25;5.38;;;0.70;99.90;;;;;;21040410;28;20060;-86
2020/12/28 20:35:31;;;;;;;5.68;3.22;;;0.70;99.90;;;;;;21043031;28;20036;-85
2020/12/28 20:45:32;;;;;;;4.75;3.00;;;0.50;99.90;;;;;;21041812;28;20043;-86
2020/12/28 20:55:38;;;;;;;11.52;5.93;;;0.50;99.90;;;;;;21043507;28;20132;-86
2020/12/28 21:05:40;;;;;;;14.50;8.15;;;0.60;99.90;;;;;;21042407;28;20036;-85
2020/12/28 21:15:41;;;;;;;10.20;5.63;;;0.60;99.90;;;;;;21065914;28;20036;-84
2020/12/28 21:25:44;;;;;;;13.52;6.25;;;0.50;99.90;;;;;;21024830;28;20032;-86
2020/12/28 21:35:44;;;;;;;7.50;3.95;;;0.70;99.90;;;;;;21032223;28;20032;-87
2020/12/28 21:45:45;;;;;;;13.27;6.50;;;1.20;99.90;;;;;;21046217;28;20038;-85
2020/12/28 21:55:46;;;;;;;18.33;7.75;;;1.10;99.90;;;;;;21051278;28;20024;-85
2020/12/28 22:05:47;;;;;;;15.50;8.02;;;0.80;99.90;;;;;;21077949;28;20508;-84
2020/12/28 22:15:49;;;;;;;14.88;8.13;;;0.90;99.90;;;;;;21047028;28;20051;-86
2020/12/28 22:25:50;;;;;;;15.35;7.65;;;0.90;99.90;;;;;;20982473;28;20063;-86
2020/12/28 22:35:51;;;;;;;14.45;7.53;;;1.00;99.90;;;;;;21010482;28;20032;-87
2020/12/28 22:45:52;;;;;;;11.00;5.30;;;1.00;99.90;;;;;;21017631;28;20075;-86
2020/12/28 22:55:54;;;;;;;8.35;5.13;;;1.10;99.90;;;;;;20966693;28;20037;-83
2020/12/28 23:05:55;;;;;;;7.72;3.53;;;1.20;99.90;;;;;;21052690;28;20063;-87
2020/12/28 23:15:56;;;;;;;;;;;1.60;99.90;;;;;;21049348;28;20036;-87
2020/12/28 23:25:57;;;;;;;3.40;2.10;;;1.70;99.90;;;;;;21068148;28;19967;-87
2020/12/28 23:36:01;;;;;;;6.38;1.85;;;1.90;99.90;;;;;;21048802;28;20040;-87
2020/12/28 23:46:08;;;;;;;1.40;1.00;;;2.20;99.90;;;;;;21045502;28;20078;-86
2020/12/28 23:56:34;;;;;;;3.60;1.40;;;2.40;99.90;;;;;;21077388;28;20174;-87
